sensor_id;sensor_type;location;lat;lon;timestamp;P1;durP1;ratioP1;P2;durP2;ratioP2
23155;SDS011;11746;50.876;4.246;2023-01-24T00:00:51;38.47;;;24.88;;
23155;SDS011;11746;50.876;4.246;2023-01-24T00:03:20;38.28;;;25.30;;
23155;SDS011;11746;50.876;4.246;2023-01-24T00:05:46;39.83;;;24.80;;
23155;SDS011;11746;50.876;4.246;2023-01-24T00:08:16;37.13;;;25.52;;
23155;SDS011;11746;50.876;4.246;2023-01-24T00:10:47;39.72;;;25.50;;
23155;SDS011;11746;50.876;4.246;2023-01-24T00:13:16;38.08;;;25.30;;
23155;SDS011;11746;50.876;4.246;2023-01-24T00:15:43;38.88;;;25.73;;
23155;SDS011;11746;50.876;4.246;2023-01-24T00:18:09;36.50;;;24.73;;
23155;SDS011;11746;50.876;4.246;2023-01-24T00:20:35;37.42;;;23.83;;
23155;SDS011;11746;50.876;4.246;2023-01-24T00:23:01;33.47;;;22.73;;
23155;SDS011;11746;50.876;4.246;2023-01-24T00:25:26;33.63;;;22.38;;
23155;SDS011;11746;50.876;4.246;2023-01-24T00:27:52;35.45;;;23.55;;
23155;SDS011;11746;50.876;4.246;2023-01-24T00:30:18;32.85;;;22.08;;
23155;SDS011;11746;50.876;4.246;2023-01-24T00:32:44;33.42;;;22.00;;
23155;SDS011;11746;50.876;4.246;2023-01-24T00:35:10;31.73;;;22.02;;
23155;SDS011;11746;50.876;4.246;2023-01-24T00:37:36;32.97;;;22.42;;
23155;SDS011;11746;50.876;4.246;2023-01-24T00:40:05;31.60;;;21.38;;
23155;SDS011;11746;50.876;4.246;2023-01-24T00:42:31;31.63;;;20.73;;
23155;SDS011;11746;50.876;4.246;2023-01-24T00:44:57;29.13;;;20.35;;
23155;SDS011;11746;50.876;4.246;2023-01-24T00:47:27;32.17;;;20.88;;
23155;SDS011;11746;50.876;4.246;2023-01-24T00:49:53;31.10;;;20.42;;
23155;SDS011;11746;50.876;4.246;2023-01-24T00:52:19;32.97;;;21.13;;
23155;SDS011;11746;50.876;4.246;2023-01-24T00:54:44;28.50;;;19.88;;
23155;SDS011;11746;50.876;4.246;2023-01-24T00:57:11;31.23;;;20.95;;
23155;SDS011;11746;50.876;4.246;2023-01-24T00:59:36;31.02;;;20.98;;
23155;SDS011;11746;50.876;4.246;2023-01-24T01:02:03;31.55;;;21.17;;
23155;SDS011;11746;50.876;4.246;2023-01-24T01:04:29;30.45;;;20.52;;
23155;SDS011;11746;50.876;4.246;2023-01-24T01:06:54;30.45;;;20.08;;
23155;SDS011;11746;50.876;4.246;2023-01-24T01:09:20;33.53;;;21.83;;
23155;SDS011;11746;50.876;4.246;2023-01-24T01:11:46;30.90;;;21.48;;
23155;SDS011;11746;50.876;4.246;2023-01-24T01:14:16;30.42;;;20.63;;
23155;SDS011;11746;50.876;4.246;2023-01-24T01:16:42;32.72;;;21.77;;
23155;SDS011;11746;50.876;4.246;2023-01-24T01:19:08;32.80;;;21.90;;
23155;SDS011;11746;50.876;4.246;2023-01-24T01:21:33;33.65;;;21.30;;
23155;SDS011;11746;50.876;4.246;2023-01-24T01:23:59;33.05;;;21.27;;
23155;SDS011;11746;50.876;4.246;2023-01-24T01:26:25;31.05;;;20.65;;
23155;SDS011;11746;50.876;4.246;2023-01-24T01:28:51;30.75;;;19.67;;
23155;SDS011;11746;50.876;4.246;2023-01-24T01:31:19;33.45;;;21.35;;
23155;SDS011;11746;50.876;4.246;2023-01-24T01:33:45;35.58;;;21.20;;
23155;SDS011;11746;50.876;4.246;2023-01-24T01:36:13;30.45;;;20.65;;
23155;SDS011;11746;50.876;4.246;2023-01-24T01:38:38;31.88;;;21.80;;
23155;SDS011;11746;50.876;4.246;2023-01-24T01:41:04;32.30;;;21.42;;
23155;SDS011;11746;50.876;4.246;2023-01-24T01:43:30;31.27;;;21.20;;
23155;SDS011;11746;50.876;4.246;2023-01-24T01:48:49;31.92;;;21.10;;
23155;SDS011;11746;50.876;4.246;2023-01-24T01:51:22;29.98;;;20.70;;
23155;SDS011;11746;50.876;4.246;2023-01-24T01:58:59;33.88;;;22.55;;
23155;SDS011;11746;50.876;4.246;2023-01-24T02:01:30;32.95;;;21.55;;
23155;SDS011;11746;50.876;4.246;2023-01-24T02:04:03;32.25;;;21.27;;
23155;SDS011;11746;50.876;4.246;2023-01-24T02:06:42;33.05;;;21.27;;
23155;SDS011;11746;50.876;4.246;2023-01-24T02:09:18;32.25;;;20.77;;
23155;SDS011;11746;50.876;4.246;2023-01-24T02:11:47;30.85;;;21.77;;
23155;SDS011;11746;50.876;4.246;2023-01-24T02:14:18;33.05;;;21.42;;
23155;SDS011;11746;50.876;4.246;2023-01-24T02:17:05;30.75;;;20.75;;
23155;SDS011;11746;50.876;4.246;2023-01-24T02:25:37;31.38;;;21.15;;
23155;SDS011;11746;50.876;4.246;2023-01-24T02:28:24;31.40;;;20.05;;
23155;SDS011;11746;50.876;4.246;2023-01-24T02:30:50;30.17;;;19.65;;
23155;SDS011;11746;50.876;4.246;2023-01-24T02:33:17;27.88;;;19.20;;
23155;SDS011;11746;50.876;4.246;2023-01-24T02:35:45;31.52;;;20.00;;
23155;SDS011;11746;50.876;4.246;2023-01-24T02:38:18;31.75;;;20.02;;
23155;SDS011;11746;50.876;4.246;2023-01-24T02:40:48;29.98;;;19.33;;
23155;SDS011;11746;50.876;4.246;2023-01-24T02:43:19;29.25;;;19.83;;
23155;SDS011;11746;50.876;4.246;2023-01-24T02:45:52;28.92;;;19.35;;
23155;SDS011;11746;50.876;4.246;2023-01-24T02:48:18;28.95;;;19.08;;
23155;SDS011;11746;50.876;4.246;2023-01-24T02:50:44;31.27;;;19.88;;
23155;SDS011;11746;50.876;4.246;2023-01-24T02:53:28;31.08;;;19.60;;
23155;SDS011;11746;50.876;4.246;2023-01-24T02:55:54;30.85;;;19.95;;
23155;SDS011;11746;50.876;4.246;2023-01-24T02:58:39;30.20;;;20.02;;
23155;SDS011;11746;50.876;4.246;2023-01-24T03:01:05;31.00;;;20.90;;
23155;SDS011;11746;50.876;4.246;2023-01-24T03:03:31;30.95;;;20.13;;
23155;SDS011;11746;50.876;4.246;2023-01-24T03:05:56;27.70;;;18.58;;
23155;SDS011;11746;50.876;4.246;2023-01-24T03:08:26;29.75;;;18.95;;
23155;SDS011;11746;50.876;4.246;2023-01-24T03:10:53;28.25;;;19.90;;
23155;SDS011;11746;50.876;4.246;2023-01-24T03:13:20;30.60;;;20.25;;
23155;SDS011;11746;50.876;4.246;2023-01-24T03:16:07;31.83;;;19.92;;
23155;SDS011;11746;50.876;4.246;2023-01-24T03:18:52;30.08;;;19.50;;
23155;SDS011;11746;50.876;4.246;2023-01-24T03:21:37;31.08;;;20.58;;
23155;SDS011;11746;50.876;4.246;2023-01-24T03:24:24;30.40;;;19.65;;
23155;SDS011;11746;50.876;4.246;2023-01-24T03:27:08;30.58;;;20.05;;
23155;SDS011;11746;50.876;4.246;2023-01-24T03:29:55;29.65;;;19.65;;
23155;SDS011;11746;50.876;4.246;2023-01-24T03:32:39;31.67;;;19.83;;
23155;SDS011;11746;50.876;4.246;2023-01-24T03:35:24;27.38;;;18.42;;
23155;SDS011;11746;50.876;4.246;2023-01-24T03:37:50;30.20;;;19.33;;
23155;SDS011;11746;50.876;4.246;2023-01-24T03:40:34;28.67;;;19.20;;
23155;SDS011;11746;50.876;4.246;2023-01-24T03:43:00;28.63;;;18.88;;
23155;SDS011;11746;50.876;4.246;2023-01-24T03:45:28;30.20;;;20.40;;
23155;SDS011;11746;50.876;4.246;2023-01-24T03:47:58;28.95;;;18.85;;
23155;SDS011;11746;50.876;4.246;2023-01-24T03:50:31;31.23;;;19.67;;
23155;SDS011;11746;50.876;4.246;2023-01-24T03:53:19;29.60;;;18.85;;
23155;SDS011;11746;50.876;4.246;2023-01-24T03:55:50;29.83;;;18.63;;
23155;SDS011;11746;50.876;4.246;2023-01-24T03:58:21;28.52;;;17.88;;
23155;SDS011;11746;50.876;4.246;2023-01-24T04:00:47;27.67;;;18.25;;
23155;SDS011;11746;50.876;4.246;2023-01-24T04:03:19;28.65;;;18.83;;
23155;SDS011;11746;50.876;4.246;2023-01-24T04:05:45;27.17;;;17.92;;
23155;SDS011;11746;50.876;4.246;2023-01-24T04:08:14;29.30;;;18.35;;
23155;SDS011;11746;50.876;4.246;2023-01-24T04:10:40;29.02;;;17.90;;
23155;SDS011;11746;50.876;4.246;2023-01-24T04:13:05;28.42;;;19.05;;
23155;SDS011;11746;50.876;4.246;2023-01-24T04:15:32;28.05;;;18.15;;
23155;SDS011;11746;50.876;4.246;2023-01-24T04:17:59;27.80;;;18.65;;
23155;SDS011;11746;50.876;4.246;2023-01-24T04:20:28;28.10;;;18.00;;
23155;SDS011;11746;50.876;4.246;2023-01-24T04:22:55;27.75;;;17.90;;
23155;SDS011;11746;50.876;4.246;2023-01-24T04:25:23;26.02;;;17.73;;
23155;SDS011;11746;50.876;4.246;2023-01-24T04:27:49;27.55;;;17.90;;
23155;SDS011;11746;50.876;4.246;2023-01-24T04:30:17;27.05;;;18.13;;
23155;SDS011;11746;50.876;4.246;2023-01-24T04:32:43;25.13;;;16.92;;
23155;SDS011;11746;50.876;4.246;2023-01-24T04:35:10;26.67;;;18.35;;
23155;SDS011;11746;50.876;4.246;2023-01-24T04:37:49;28.25;;;16.63;;
23155;SDS011;11746;50.876;4.246;2023-01-24T04:40:16;24.55;;;17.30;;
23155;SDS011;11746;50.876;4.246;2023-01-24T04:42:42;25.48;;;17.40;;
23155;SDS011;11746;50.876;4.246;2023-01-24T04:45:09;24.83;;;17.08;;
23155;SDS011;11746;50.876;4.246;2023-01-24T04:47:36;27.23;;;17.55;;
23155;SDS011;11746;50.876;4.246;2023-01-24T04:50:02;28.20;;;16.95;;
23155;SDS011;11746;50.876;4.246;2023-01-24T04:52:28;26.58;;;17.77;;
23155;SDS011;11746;50.876;4.246;2023-01-24T04:54:54;27.40;;;17.35;;
23155;SDS011;11746;50.876;4.246;2023-01-24T04:57:22;28.60;;;18.67;;
23155;SDS011;11746;50.876;4.246;2023-01-24T04:59:48;27.92;;;17.58;;
23155;SDS011;11746;50.876;4.246;2023-01-24T05:02:13;28.08;;;18.10;;
23155;SDS011;11746;50.876;4.246;2023-01-24T05:04:39;25.67;;;17.25;;
23155;SDS011;11746;50.876;4.246;2023-01-24T05:07:08;27.35;;;18.33;;
23155;SDS011;11746;50.876;4.246;2023-01-24T05:09:34;26.70;;;17.50;;
23155;SDS011;11746;50.876;4.246;2023-01-24T05:12:00;25.77;;;17.83;;
23155;SDS011;11746;50.876;4.246;2023-01-24T05:14:25;28.05;;;18.35;;
23155;SDS011;11746;50.876;4.246;2023-01-24T05:16:51;27.38;;;18.38;;
23155;SDS011;11746;50.876;4.246;2023-01-24T05:19:21;25.60;;;17.55;;
23155;SDS011;11746;50.876;4.246;2023-01-24T05:21:47;27.02;;;18.15;;
23155;SDS011;11746;50.876;4.246;2023-01-24T05:24:13;26.08;;;18.17;;
23155;SDS011;11746;50.876;4.246;2023-01-24T05:26:39;26.40;;;17.95;;
23155;SDS011;11746;50.876;4.246;2023-01-24T05:29:04;28.52;;;18.50;;
23155;SDS011;11746;50.876;4.246;2023-01-24T05:31:32;26.95;;;18.00;;
23155;SDS011;11746;50.876;4.246;2023-01-24T05:33:58;25.98;;;17.85;;
23155;SDS011;11746;50.876;4.246;2023-01-24T05:36:24;26.50;;;18.10;;
23155;SDS011;11746;50.876;4.246;2023-01-24T05:38:55;26.42;;;17.90;;
23155;SDS011;11746;50.876;4.246;2023-01-24T05:41:20;27.65;;;17.73;;
23155;SDS011;11746;50.876;4.246;2023-01-24T05:43:46;26.80;;;18.08;;
23155;SDS011;11746;50.876;4.246;2023-01-24T05:46:16;26.17;;;18.13;;
23155;SDS011;11746;50.876;4.246;2023-01-24T05:48:44;27.50;;;18.30;;
23155;SDS011;11746;50.876;4.246;2023-01-24T05:51:11;25.77;;;17.25;;
23155;SDS011;11746;50.876;4.246;2023-01-24T05:53:39;25.40;;;18.77;;
23155;SDS011;11746;50.876;4.246;2023-01-24T05:56:10;27.42;;;19.02;;
23155;SDS011;11746;50.876;4.246;2023-01-24T05:58:42;28.10;;;18.15;;
23155;SDS011;11746;50.876;4.246;2023-01-24T06:01:15;25.42;;;18.17;;
23155;SDS011;11746;50.876;4.246;2023-01-24T06:03:43;27.70;;;18.35;;
23155;SDS011;11746;50.876;4.246;2023-01-24T06:06:13;24.83;;;17.30;;
23155;SDS011;11746;50.876;4.246;2023-01-24T06:08:42;26.92;;;18.38;;
23155;SDS011;11746;50.876;4.246;2023-01-24T06:11:10;28.30;;;19.55;;
23155;SDS011;11746;50.876;4.246;2023-01-24T06:13:44;26.85;;;18.45;;
23155;SDS011;11746;50.876;4.246;2023-01-24T06:16:14;28.50;;;18.70;;
23155;SDS011;11746;50.876;4.246;2023-01-24T06:18:42;25.45;;;17.83;;
23155;SDS011;11746;50.876;4.246;2023-01-24T06:23:50;27.70;;;18.48;;
23155;SDS011;11746;50.876;4.246;2023-01-24T06:26:15;29.90;;;18.92;;
23155;SDS011;11746;50.876;4.246;2023-01-24T06:28:42;28.77;;;19.30;;
23155;SDS011;11746;50.876;4.246;2023-01-24T06:31:14;30.10;;;20.00;;
23155;SDS011;11746;50.876;4.246;2023-01-24T06:39:45;31.15;;;20.30;;
23155;SDS011;11746;50.876;4.246;2023-01-24T06:42:16;26.95;;;17.85;;
23155;SDS011;11746;50.876;4.246;2023-01-24T06:44:47;29.00;;;20.13;;
23155;SDS011;11746;50.876;4.246;2023-01-24T06:47:14;29.92;;;20.27;;
23155;SDS011;11746;50.876;4.246;2023-01-24T06:49:41;28.83;;;19.33;;
23155;SDS011;11746;50.876;4.246;2023-01-24T06:52:07;30.35;;;20.58;;
23155;SDS011;11746;50.876;4.246;2023-01-24T06:54:36;30.38;;;19.80;;
23155;SDS011;11746;50.876;4.246;2023-01-24T06:57:01;29.73;;;19.70;;
23155;SDS011;11746;50.876;4.246;2023-01-24T06:59:31;31.85;;;19.77;;
23155;SDS011;11746;50.876;4.246;2023-01-24T07:01:57;31.38;;;20.80;;
23155;SDS011;11746;50.876;4.246;2023-01-24T07:04:22;35.90;;;22.58;;
23155;SDS011;11746;50.876;4.246;2023-01-24T07:06:48;34.50;;;20.63;;
23155;SDS011;11746;50.876;4.246;2023-01-24T07:09:17;33.00;;;20.70;;
23155;SDS011;11746;50.876;4.246;2023-01-24T07:11:44;33.05;;;22.00;;
23155;SDS011;11746;50.876;4.246;2023-01-24T07:14:12;34.35;;;21.40;;
23155;SDS011;11746;50.876;4.246;2023-01-24T07:16:38;32.05;;;21.02;;
23155;SDS011;11746;50.876;4.246;2023-01-24T07:19:04;34.15;;;21.30;;
23155;SDS011;11746;50.876;4.246;2023-01-24T07:21:30;37.85;;;22.67;;
23155;SDS011;11746;50.876;4.246;2023-01-24T07:23:56;34.88;;;22.55;;
23155;SDS011;11746;50.876;4.246;2023-01-24T07:26:22;33.30;;;21.73;;
23155;SDS011;11746;50.876;4.246;2023-01-24T07:28:48;33.75;;;21.98;;
23155;SDS011;11746;50.876;4.246;2023-01-24T07:31:14;31.65;;;21.77;;
23155;SDS011;11746;50.876;4.246;2023-01-24T07:33:40;33.47;;;21.83;;
23155;SDS011;11746;50.876;4.246;2023-01-24T07:36:13;35.40;;;23.02;;
23155;SDS011;11746;50.876;4.246;2023-01-24T07:38:40;34.20;;;22.02;;
23155;SDS011;11746;50.876;4.246;2023-01-24T07:41:07;36.58;;;22.90;;
23155;SDS011;11746;50.876;4.246;2023-01-24T07:43:33;34.95;;;23.17;;
23155;SDS011;11746;50.876;4.246;2023-01-24T07:46:00;39.47;;;25.10;;
23155;SDS011;11746;50.876;4.246;2023-01-24T07:48:25;35.88;;;23.85;;
23155;SDS011;11746;50.876;4.246;2023-01-24T07:50:51;39.45;;;25.45;;
23155;SDS011;11746;50.876;4.246;2023-01-24T07:53:17;39.83;;;25.25;;
23155;SDS011;11746;50.876;4.246;2023-01-24T07:55:44;38.70;;;24.42;;
23155;SDS011;11746;50.876;4.246;2023-01-24T07:58:09;42.38;;;25.30;;
23155;SDS011;11746;50.876;4.246;2023-01-24T08:00:35;39.13;;;25.23;;
23155;SDS011;11746;50.876;4.246;2023-01-24T08:03:01;41.90;;;26.15;;
23155;SDS011;11746;50.876;4.246;2023-01-24T08:05:30;44.13;;;27.02;;
23155;SDS011;11746;50.876;4.246;2023-01-24T08:07:57;40.78;;;26.45;;
23155;SDS011;11746;50.876;4.246;2023-01-24T08:10:24;44.10;;;27.60;;
23155;SDS011;11746;50.876;4.246;2023-01-24T08:12:53;41.10;;;26.02;;
23155;SDS011;11746;50.876;4.246;2023-01-24T08:15:19;41.25;;;26.33;;
23155;SDS011;11746;50.876;4.246;2023-01-24T08:17:47;43.97;;;26.27;;
23155;SDS011;11746;50.876;4.246;2023-01-24T08:20:14;47.45;;;27.08;;
23155;SDS011;11746;50.876;4.246;2023-01-24T08:22:42;41.28;;;26.17;;
23155;SDS011;11746;50.876;4.246;2023-01-24T08:25:08;41.00;;;26.90;;
23155;SDS011;11746;50.876;4.246;2023-01-24T08:27:35;49.97;;;29.05;;
23155;SDS011;11746;50.876;4.246;2023-01-24T08:30:04;46.20;;;28.13;;
23155;SDS011;11746;50.876;4.246;2023-01-24T08:32:30;48.22;;;28.10;;
23155;SDS011;11746;50.876;4.246;2023-01-24T08:34:56;45.75;;;28.85;;
23155;SDS011;11746;50.876;4.246;2023-01-24T08:37:25;48.42;;;29.17;;
23155;SDS011;11746;50.876;4.246;2023-01-24T08:39:53;47.55;;;29.45;;
23155;SDS011;11746;50.876;4.246;2023-01-24T08:42:21;49.00;;;28.55;;
23155;SDS011;11746;50.876;4.246;2023-01-24T08:44:48;46.58;;;29.60;;
23155;SDS011;11746;50.876;4.246;2023-01-24T08:47:13;45.47;;;29.30;;
23155;SDS011;11746;50.876;4.246;2023-01-24T08:49:39;45.10;;;29.65;;
23155;SDS011;11746;50.876;4.246;2023-01-24T08:52:05;45.00;;;29.90;;
23155;SDS011;11746;50.876;4.246;2023-01-24T08:54:31;47.05;;;31.23;;
23155;SDS011;11746;50.876;4.246;2023-01-24T08:57:01;45.03;;;29.13;;
23155;SDS011;11746;50.876;4.246;2023-01-24T08:59:30;46.28;;;29.67;;
23155;SDS011;11746;50.876;4.246;2023-01-24T09:01:56;48.47;;;29.67;;
23155;SDS011;11746;50.876;4.246;2023-01-24T09:04:24;45.60;;;29.20;;
23155;SDS011;11746;50.876;4.246;2023-01-24T09:07:13;55.03;;;27.45;;
23155;SDS011;11746;50.876;4.246;2023-01-24T09:09:38;41.65;;;26.50;;
23155;SDS011;11746;50.876;4.246;2023-01-24T09:12:04;42.85;;;27.40;;
23155;SDS011;11746;50.876;4.246;2023-01-24T09:14:31;41.13;;;25.85;;
23155;SDS011;11746;50.876;4.246;2023-01-24T09:16:57;40.65;;;26.80;;
23155;SDS011;11746;50.876;4.246;2023-01-24T09:19:23;41.33;;;25.98;;
23155;SDS011;11746;50.876;4.246;2023-01-24T09:21:54;40.25;;;27.55;;
23155;SDS011;11746;50.876;4.246;2023-01-24T09:24:22;40.80;;;27.05;;
23155;SDS011;11746;50.876;4.246;2023-01-24T09:26:49;39.15;;;26.20;;
23155;SDS011;11746;50.876;4.246;2023-01-24T09:29:15;42.88;;;28.10;;
23155;SDS011;11746;50.876;4.246;2023-01-24T09:31:45;41.40;;;27.60;;
23155;SDS011;11746;50.876;4.246;2023-01-24T09:34:12;43.10;;;28.02;;
23155;SDS011;11746;50.876;4.246;2023-01-24T09:36:39;37.92;;;25.58;;
23155;SDS011;11746;50.876;4.246;2023-01-24T09:39:04;39.85;;;26.67;;
23155;SDS011;11746;50.876;4.246;2023-01-24T09:44:32;39.57;;;25.60;;
23155;SDS011;11746;50.876;4.246;2023-01-24T09:47:18;40.17;;;25.55;;
23155;SDS011;11746;50.876;4.246;2023-01-24T09:50:03;43.95;;;29.58;;
23155;SDS011;11746;50.876;4.246;2023-01-24T09:58:04;40.10;;;26.70;;
23155;SDS011;11746;50.876;4.246;2023-01-24T10:00:37;42.03;;;27.17;;
23155;SDS011;11746;50.876;4.246;2023-01-24T10:03:19;39.65;;;26.65;;
23155;SDS011;11746;50.876;4.246;2023-01-24T10:05:51;44.42;;;26.88;;
23155;SDS011;11746;50.876;4.246;2023-01-24T10:19:16;40.60;;;27.33;;
23155;SDS011;11746;50.876;4.246;2023-01-24T10:21:55;39.10;;;26.85;;
23155;SDS011;11746;50.876;4.246;2023-01-24T10:24:47;38.35;;;26.02;;
23155;SDS011;11746;50.876;4.246;2023-01-24T10:27:30;37.72;;;25.17;;
23155;SDS011;11746;50.876;4.246;2023-01-24T10:32:43;43.72;;;28.42;;
23155;SDS011;11746;50.876;4.246;2023-01-24T10:35:14;44.13;;;27.77;;
23155;SDS011;11746;50.876;4.246;2023-01-24T10:37:42;42.45;;;28.15;;
23155;SDS011;11746;50.876;4.246;2023-01-24T10:40:15;41.03;;;27.70;;
23155;SDS011;11746;50.876;4.246;2023-01-24T10:42:41;47.78;;;31.83;;
23155;SDS011;11746;50.876;4.246;2023-01-24T10:45:29;44.03;;;29.65;;
23155;SDS011;11746;50.876;4.246;2023-01-24T10:50:34;45.97;;;30.05;;
23155;SDS011;11746;50.876;4.246;2023-01-24T10:53:24;46.08;;;30.05;;
23155;SDS011;11746;50.876;4.246;2023-01-24T10:56:24;43.60;;;28.60;;
23155;SDS011;11746;50.876;4.246;2023-01-24T10:59:03;43.05;;;28.13;;
23155;SDS011;11746;50.876;4.246;2023-01-24T11:01:47;44.28;;;28.52;;
23155;SDS011;11746;50.876;4.246;2023-01-24T11:04:24;45.05;;;29.23;;
23155;SDS011;11746;50.876;4.246;2023-01-24T11:06:54;43.45;;;28.73;;
23155;SDS011;11746;50.876;4.246;2023-01-24T11:09:21;42.75;;;27.83;;
23155;SDS011;11746;50.876;4.246;2023-01-24T11:11:55;42.15;;;28.05;;
23155;SDS011;11746;50.876;4.246;2023-01-24T11:14:27;43.15;;;28.08;;
23155;SDS011;11746;50.876;4.246;2023-01-24T11:16:56;41.42;;;27.92;;
23155;SDS011;11746;50.876;4.246;2023-01-24T11:19:28;43.95;;;28.63;;
23155;SDS011;11746;50.876;4.246;2023-01-24T11:21:55;42.95;;;28.52;;
23155;SDS011;11746;50.876;4.246;2023-01-24T11:24:23;43.17;;;27.98;;
23155;SDS011;11746;50.876;4.246;2023-01-24T11:26:51;40.13;;;26.65;;
23155;SDS011;11746;50.876;4.246;2023-01-24T11:29:38;43.03;;;28.30;;
23155;SDS011;11746;50.876;4.246;2023-01-24T11:34:44;44.45;;;28.70;;
23155;SDS011;11746;50.876;4.246;2023-01-24T11:42:49;44.88;;;29.15;;
23155;SDS011;11746;50.876;4.246;2023-01-24T11:45:21;45.75;;;29.85;;
23155;SDS011;11746;50.876;4.246;2023-01-24T11:50:37;45.10;;;30.15;;
23155;SDS011;11746;50.876;4.246;2023-01-24T12:01:35;47.95;;;29.88;;
23155;SDS011;11746;50.876;4.246;2023-01-24T12:22:12;43.28;;;27.77;;
23155;SDS011;11746;50.876;4.246;2023-01-24T12:24:43;45.28;;;29.45;;
23155;SDS011;11746;50.876;4.246;2023-01-24T12:27:30;44.13;;;29.33;;
23155;SDS011;11746;50.876;4.246;2023-01-24T12:32:40;46.17;;;29.70;;
23155;SDS011;11746;50.876;4.246;2023-01-24T12:37:52;40.72;;;27.83;;
23155;SDS011;11746;50.876;4.246;2023-01-24T12:40:28;40.70;;;27.33;;
23155;SDS011;11746;50.876;4.246;2023-01-24T12:52:02;39.53;;;26.55;;
23155;SDS011;11746;50.876;4.246;2023-01-24T12:54:35;39.17;;;27.23;;
23155;SDS011;11746;50.876;4.246;2023-01-24T13:00:17;39.38;;;26.10;;
23155;SDS011;11746;50.876;4.246;2023-01-24T13:11:16;40.75;;;27.83;;
23155;SDS011;11746;50.876;4.246;2023-01-24T13:22:40;35.88;;;24.48;;
23155;SDS011;11746;50.876;4.246;2023-01-24T13:33:43;40.65;;;26.25;;
23155;SDS011;11746;50.876;4.246;2023-01-24T13:36:19;41.17;;;26.63;;
23155;SDS011;11746;50.876;4.246;2023-01-24T13:38:48;40.30;;;27.15;;
23155;SDS011;11746;50.876;4.246;2023-01-24T13:48:42;39.13;;;24.80;;
23155;SDS011;11746;50.876;4.246;2023-01-24T13:54:17;37.40;;;24.08;;
23155;SDS011;11746;50.876;4.246;2023-01-24T13:59:37;38.88;;;24.85;;
23155;SDS011;11746;50.876;4.246;2023-01-24T14:04:51;38.45;;;24.85;;
23155;SDS011;11746;50.876;4.246;2023-01-24T14:07:18;39.35;;;26.17;;
23155;SDS011;11746;50.876;4.246;2023-01-24T14:09:56;40.53;;;25.88;;
23155;SDS011;11746;50.876;4.246;2023-01-24T14:12:27;41.92;;;27.13;;
23155;SDS011;11746;50.876;4.246;2023-01-24T14:15:03;39.33;;;26.63;;
23155;SDS011;11746;50.876;4.246;2023-01-24T14:20:29;43.60;;;26.92;;
23155;SDS011;11746;50.876;4.246;2023-01-24T14:23:20;42.15;;;26.40;;
23155;SDS011;11746;50.876;4.246;2023-01-24T14:25:50;38.80;;;25.33;;
23155;SDS011;11746;50.876;4.246;2023-01-24T14:28:37;41.05;;;24.77;;
23155;SDS011;11746;50.876;4.246;2023-01-24T14:31:35;42.00;;;26.13;;
23155;SDS011;11746;50.876;4.246;2023-01-24T14:34:12;40.40;;;25.35;;
23155;SDS011;11746;50.876;4.246;2023-01-24T14:36:48;42.60;;;26.55;;
23155;SDS011;11746;50.876;4.246;2023-01-24T14:39:26;43.85;;;28.38;;
23155;SDS011;11746;50.876;4.246;2023-01-24T14:41:53;42.30;;;26.63;;
23155;SDS011;11746;50.876;4.246;2023-01-24T14:49:33;41.40;;;27.02;;
23155;SDS011;11746;50.876;4.246;2023-01-24T14:52:03;40.45;;;26.60;;
23155;SDS011;11746;50.876;4.246;2023-01-24T14:54:44;42.35;;;27.75;;
23155;SDS011;11746;50.876;4.246;2023-01-24T14:57:25;41.78;;;28.20;;
23155;SDS011;11746;50.876;4.246;2023-01-24T15:02:24;42.35;;;27.88;;
23155;SDS011;11746;50.876;4.246;2023-01-24T15:04:50;43.22;;;28.15;;
23155;SDS011;11746;50.876;4.246;2023-01-24T15:07:16;43.42;;;27.40;;
23155;SDS011;11746;50.876;4.246;2023-01-24T15:09:42;40.15;;;27.38;;
23155;SDS011;11746;50.876;4.246;2023-01-24T15:12:32;42.42;;;28.00;;
23155;SDS011;11746;50.876;4.246;2023-01-24T15:14:57;41.28;;;27.48;;
23155;SDS011;11746;50.876;4.246;2023-01-24T15:17:29;43.60;;;28.25;;
23155;SDS011;11746;50.876;4.246;2023-01-24T15:19:57;43.47;;;28.40;;
23155;SDS011;11746;50.876;4.246;2023-01-24T15:22:26;43.83;;;28.65;;
23155;SDS011;11746;50.876;4.246;2023-01-24T15:24:56;40.88;;;27.35;;
23155;SDS011;11746;50.876;4.246;2023-01-24T15:32:42;45.38;;;28.08;;
23155;SDS011;11746;50.876;4.246;2023-01-24T15:35:19;44.35;;;27.38;;
23155;SDS011;11746;50.876;4.246;2023-01-24T15:40:44;42.38;;;28.48;;
23155;SDS011;11746;50.876;4.246;2023-01-24T15:46:13;45.10;;;28.25;;
23155;SDS011;11746;50.876;4.246;2023-01-24T15:49:01;46.13;;;29.52;;
23155;SDS011;11746;50.876;4.246;2023-01-24T15:51:30;48.13;;;28.95;;
23155;SDS011;11746;50.876;4.246;2023-01-24T15:53:59;43.28;;;28.63;;
23155;SDS011;11746;50.876;4.246;2023-01-24T15:56:24;45.97;;;29.30;;
23155;SDS011;11746;50.876;4.246;2023-01-24T15:58:51;44.53;;;28.35;;
23155;SDS011;11746;50.876;4.246;2023-01-24T16:01:17;41.72;;;28.48;;
23155;SDS011;11746;50.876;4.246;2023-01-24T16:03:43;39.67;;;27.08;;
23155;SDS011;11746;50.876;4.246;2023-01-24T16:06:09;40.95;;;27.88;;
23155;SDS011;11746;50.876;4.246;2023-01-24T16:08:35;40.03;;;26.90;;
23155;SDS011;11746;50.876;4.246;2023-01-24T16:11:01;38.03;;;26.33;;
23155;SDS011;11746;50.876;4.246;2023-01-24T16:16:04;45.75;;;28.15;;
23155;SDS011;11746;50.876;4.246;2023-01-24T16:18:32;42.00;;;28.25;;
23155;SDS011;11746;50.876;4.246;2023-01-24T16:20:58;42.97;;;27.83;;
23155;SDS011;11746;50.876;4.246;2023-01-24T16:23:24;42.45;;;28.55;;
23155;SDS011;11746;50.876;4.246;2023-01-24T16:25:50;43.63;;;29.20;;
23155;SDS011;11746;50.876;4.246;2023-01-24T16:28:20;41.58;;;28.30;;
23155;SDS011;11746;50.876;4.246;2023-01-24T16:30:50;44.05;;;30.17;;
23155;SDS011;11746;50.876;4.246;2023-01-24T16:33:18;42.00;;;27.77;;
23155;SDS011;11746;50.876;4.246;2023-01-24T16:35:48;45.08;;;30.30;;
23155;SDS011;11746;50.876;4.246;2023-01-24T16:38:14;40.20;;;27.90;;
23155;SDS011;11746;50.876;4.246;2023-01-24T16:40:40;42.95;;;29.45;;
23155;SDS011;11746;50.876;4.246;2023-01-24T16:43:07;42.53;;;28.30;;
23155;SDS011;11746;50.876;4.246;2023-01-24T16:45:47;39.95;;;26.77;;
23155;SDS011;11746;50.876;4.246;2023-01-24T16:48:16;38.08;;;24.80;;
23155;SDS011;11746;50.876;4.246;2023-01-24T16:50:43;37.17;;;25.17;;
23155;SDS011;11746;50.876;4.246;2023-01-24T16:53:09;35.33;;;25.15;;
23155;SDS011;11746;50.876;4.246;2023-01-24T16:55:36;37.28;;;26.35;;
23155;SDS011;11746;50.876;4.246;2023-01-24T16:58:06;34.90;;;24.80;;
23155;SDS011;11746;50.876;4.246;2023-01-24T17:00:35;45.80;;;24.88;;
23155;SDS011;11746;50.876;4.246;2023-01-24T17:03:01;34.50;;;23.98;;
23155;SDS011;11746;50.876;4.246;2023-01-24T17:05:28;33.50;;;24.48;;
23155;SDS011;11746;50.876;4.246;2023-01-24T17:07:55;34.80;;;24.00;;
23155;SDS011;11746;50.876;4.246;2023-01-24T17:10:22;34.17;;;24.63;;
23155;SDS011;11746;50.876;4.246;2023-01-24T17:12:52;34.85;;;24.20;;
23155;SDS011;11746;50.876;4.246;2023-01-24T17:15:18;32.88;;;24.27;;
23155;SDS011;11746;50.876;4.246;2023-01-24T17:17:44;39.97;;;25.95;;
23155;SDS011;11746;50.876;4.246;2023-01-24T17:20:10;34.60;;;23.20;;
23155;SDS011;11746;50.876;4.246;2023-01-24T17:22:41;36.88;;;24.88;;
23155;SDS011;11746;50.876;4.246;2023-01-24T17:25:07;36.17;;;24.60;;